Time;durP1;ratioP1;P1;durP2;ratioP2;P2;SDS_P1;SDS_P2;PMS_P1;PMS_P2;Temp;Humidity;BMP_temperature;BMP_pressure;BME280_temperature;BME280_humidity;BME280_pressure;Samples;Min_cycle;Max_cycle;Signal;HPM_P1;HPM_P2
2022/10/02 00:01:56;;;;;;;4.17;1.50;;;20.60;99.90;;;;;;4950324;28;20621;-74
2022/10/02 00:04:32;;;;;;;8.53;2.23;;;20.60;99.90;;;;;;4953973;28;20221;-74
2022/10/02 00:07:05;;;;;;;6.43;1.53;;;20.60;99.90;;;;;;4947311;28;20206;-74
2022/10/02 00:09:40;;;;;;;7.93;1.67;;;20.50;99.90;;;;;;4946721;28;20253;-76
2022/10/02 00:12:11;;;;;;;6.17;2.00;;;20.50;99.90;;;;;;4948181;28;20230;-76
2022/10/02 00:14:42;;;;;;;10.67;2.97;;;20.50;99.90;;;;;;4950561;28;20241;-76
2022/10/02 00:17:18;;;;;;;7.70;3.03;;;20.40;99.90;;;;;;4953917;28;20234;-74
2022/10/02 00:19:46;;;;;;;4.40;1.57;;;20.40;99.90;;;;;;4954011;28;20197;-74
2022/10/02 00:22:30;;;;;;;6.70;2.13;;;20.40;99.90;;;;;;4950483;28;21216;-75
2022/10/02 00:25:03;;;;;;;4.67;1.53;;;20.40;99.90;;;;;;4950590;28;20245;-75
2022/10/02 00:27:54;;;;;;;4.80;2.03;;;20.30;99.90;;;;;;4947662;28;20199;-74
2022/10/02 00:30:22;;;;;;;7.17;1.90;;;20.40;99.90;;;;;;4954844;28;20213;-76
2022/10/02 00:33:03;;;;;;;4.95;1.25;;;20.30;99.90;;;;;;4953921;28;21312;-75
2022/10/02 00:35:55;;;;;;;14.30;1.90;;;20.30;99.90;;;;;;4949550;28;20225;-75
2022/10/02 00:38:35;;;;;;;2.93;1.23;;;20.30;99.90;;;;;;4951715;28;20206;-75
2022/10/02 00:41:19;;;;;;;3.83;1.43;;;20.40;99.90;;;;;;4958933;28;20190;-74
2022/10/02 00:43:58;;;;;;;7.57;2.13;;;20.40;99.90;;;;;;4944231;28;20223;-74
2022/10/02 00:46:38;;;;;;;5.23;1.60;;;20.40;99.90;;;;;;4953743;28;20598;-77
2022/10/02 00:49:41;;;;;;;7.23;1.70;;;20.40;99.90;;;;;;4952602;28;20560;-75
2022/10/02 00:52:29;;;;;;;7.27;1.83;;;20.40;99.90;;;;;;4953640;28;20202;-76
2022/10/02 00:55:19;;;;;;;3.67;1.40;;;20.40;99.90;;;;;;4949997;28;20190;-75
2022/10/02 00:58:03;;;;;;;5.07;1.83;;;20.40;99.90;;;;;;4949259;28;20735;-75
2022/10/02 01:00:31;;;;;;;5.40;2.13;;;20.30;99.90;;;;;;4946469;28;20249;-75
2022/10/02 01:03:10;;;;;;;8.43;1.90;;;20.30;99.90;;;;;;4957938;28;20207;-75
2022/10/02 01:05:40;;;;;;;8.43;1.93;;;20.30;99.90;;;;;;4947872;28;20253;-75
2022/10/02 01:08:09;;;;;;;5.67;1.90;;;20.30;99.90;;;;;;4949383;28;20195;-75
2022/10/02 01:10:38;;;;;;;4.60;2.20;;;20.30;99.90;;;;;;4951326;28;20734;-76
2022/10/02 01:13:07;;;;;;;7.47;2.00;;;20.30;99.90;;;;;;4949200;28;20294;-75
2022/10/02 01:15:38;;;;;;;6.73;2.20;;;20.30;99.90;;;;;;4948943;28;20258;-76
2022/10/02 01:18:07;;;;;;;6.03;2.23;;;20.30;99.90;;;;;;4957981;28;20218;-74
2022/10/02 01:20:38;;;;;;;3.87;1.80;;;20.30;99.90;;;;;;4950513;28;20285;-76
2022/10/02 01:23:19;;;;;;;9.00;2.90;;;20.30;99.90;;;;;;4955332;28;20559;-76
2022/10/02 01:25:49;;;;;;;7.17;2.17;;;20.30;99.90;;;;;;4956531;28;20249;-74
2022/10/02 01:28:18;;;;;;;5.50;1.87;;;20.30;99.90;;;;;;4946785;28;20293;-75
2022/10/02 01:30:50;;;;;;;7.37;2.30;;;20.30;99.90;;;;;;4956480;28;20199;-75
2022/10/02 01:33:19;;;;;;;8.30;2.03;;;20.30;99.90;;;;;;4952277;28;20277;-75
2022/10/02 01:35:48;;;;;;;7.80;2.50;;;20.30;99.90;;;;;;4954922;28;20625;-74
2022/10/02 01:38:21;;;;;;;5.70;2.43;;;20.30;99.90;;;;;;4952866;28;20241;-76
2022/10/02 01:40:51;;;;;;;9.30;2.47;;;20.30;99.90;;;;;;4951562;28;20230;-74
2022/10/02 01:43:23;;;;;;;10.77;2.53;;;20.30;99.90;;;;;;4952039;28;20285;-76
2022/10/02 01:45:58;;;;;;;8.80;3.03;;;20.30;99.90;;;;;;4957678;28;20198;-78
2022/10/02 01:48:42;;;;;;;8.93;3.53;;;20.20;99.90;;;;;;4958667;28;20624;-77
2022/10/02 01:51:39;;;;;;;9.37;3.43;;;20.30;99.90;;;;;;4951149;28;20249;-76
2022/10/02 01:54:18;;;;;;;9.57;3.23;;;20.20;99.90;;;;;;4958681;28;20682;-75
2022/10/02 01:56:56;;;;;;;12.10;4.10;;;20.20;99.90;;;;;;4952964;28;20198;-75
2022/10/02 01:59:37;;;;;;;8.67;4.20;;;20.20;99.90;;;;;;4956063;28;20194;-75
2022/10/02 02:02:16;;;;;;;8.70;4.57;;;20.30;99.90;;;;;;4954002;28;20191;-75
2022/10/02 02:04:55;;;;;;;7.90;4.03;;;20.30;99.90;;;;;;4951364;28;22169;-76
2022/10/02 02:07:34;;;;;;;14.07;4.43;;;20.30;99.90;;;;;;4951981;28;20806;-76
2022/10/02 02:10:13;;;;;;;8.70;5.20;;;20.40;99.90;;;;;;4949967;28;20205;-76
2022/10/02 02:12:47;;;;;;;14.27;5.27;;;20.40;99.90;;;;;;4951943;28;20187;-74
2022/10/02 02:15:22;;;;;;;13.13;5.93;;;20.40;99.90;;;;;;4956968;28;20281;-73
2022/10/02 02:17:56;;;;;;;9.63;5.80;;;20.40;99.90;;;;;;4945902;28;20269;-75
2022/10/02 02:20:30;;;;;;;8.70;6.07;;;20.30;99.90;;;;;;4955369;28;20568;-75
2022/10/02 02:23:04;;;;;;;11.57;6.53;;;20.40;99.90;;;;;;4953368;28;20190;-74
2022/10/02 02:25:36;;;;;;;11.02;6.30;;;20.30;99.90;;;;;;4957100;28;20580;-74
2022/10/02 02:28:11;;;;;;;11.07;6.73;;;20.30;99.90;;;;;;4944650;28;20634;-78
2022/10/02 02:30:44;;;;;;;14.30;6.20;;;20.30;99.90;;;;;;4947904;28;20285;-74
2022/10/02 02:33:17;;;;;;;8.88;5.70;;;20.40;99.90;;;;;;4949844;28;20230;-74
2022/10/02 02:35:48;;;;;;;11.43;5.93;;;20.40;99.90;;;;;;4954507;28;20218;-74
2022/10/02 02:38:22;;;;;;;11.98;6.28;;;20.40;99.90;;;;;;4947325;28;20191;-75
2022/10/02 02:40:51;;;;;;;13.77;6.40;;;20.40;99.90;;;;;;4953134;28;20593;-75
2022/10/02 02:43:27;;;;;;;11.90;5.85;;;20.40;99.90;;;;;;4951793;28;20199;-74
2022/10/02 02:45:57;;;;;;;9.53;6.13;;;20.40;99.90;;;;;;4956727;28;21142;-74
2022/10/02 02:48:29;;;;;;;9.63;5.82;;;20.40;99.90;;;;;;4953288;28;20196;-73
2022/10/02 02:51:01;;;;;;;9.35;5.70;;;20.40;99.90;;;;;;4957993;28;20234;-76
2022/10/02 02:53:35;;;;;;;11.10;6.00;;;20.40;99.90;;;;;;4950498;28;20245;-74
2022/10/02 02:56:08;;;;;;;7.80;5.40;;;20.40;99.90;;;;;;4952234;28;20198;-76
2022/10/02 02:58:42;;;;;;;10.70;5.70;;;20.30;99.90;;;;;;4949993;28;20222;-77
2022/10/02 03:01:11;;;;;;;9.95;5.25;;;20.40;99.90;;;;;;4953272;28;20603;-75
2022/10/02 03:03:39;;;;;;;7.82;5.32;;;20.40;99.90;;;;;;4956387;28;20232;-75
2022/10/02 03:06:30;;;;;;;11.13;5.30;;;20.30;99.90;;;;;;4948737;28;20301;-75
2022/10/02 03:09:01;;;;;;;9.32;4.97;;;20.30;99.90;;;;;;4952293;28;20195;-75
2022/10/02 03:11:46;;;;;;;7.40;4.65;;;20.30;99.90;;;;;;4954105;28;20201;-76
2022/10/02 03:14:42;;;;;;;11.98;4.78;;;20.30;99.90;;;;;;4953841;28;20240;-75
2022/10/02 03:17:25;;;;;;;11.52;4.82;;;20.20;99.90;;;;;;4950597;28;20253;-75
2022/10/02 03:20:00;;;;;;;6.83;4.37;;;20.20;99.90;;;;;;4950513;28;20197;-75
2022/10/02 03:22:40;;;;;;;6.93;4.67;;;20.10;99.90;;;;;;4947104;28;21368;-76
2022/10/02 03:25:14;;;;;;;6.47;4.60;;;20.10;99.90;;;;;;4951379;28;20908;-75
2022/10/02 03:27:48;;;;;;;10.63;4.80;;;20.10;99.90;;;;;;4957635;28;20648;-74
2022/10/02 03:30:20;;;;;;;7.07;4.07;;;20.00;99.90;;;;;;4950768;28;20870;-74
2022/10/02 03:32:52;;;;;;;7.53;4.50;;;19.90;99.90;;;;;;4957901;28;20475;-74
2022/10/02 03:35:22;;;;;;;7.40;3.60;;;19.90;99.90;;;;;;4956479;28;20197;-75
2022/10/02 03:37:53;;;;;;;7.87;3.70;;;19.90;99.90;;;;;;4948649;28;20225;-75
2022/10/02 03:40:23;;;;;;;6.47;3.67;;;19.90;99.90;;;;;;4951436;28;20194;-76
2022/10/02 03:42:57;;;;;;;7.30;3.97;;;19.80;99.90;;;;;;4948961;28;20241;-75
2022/10/02 03:45:27;;;;;;;7.43;3.70;;;19.80;99.90;;;;;;4949231;28;20676;-75
2022/10/02 03:48:16;;;;;;;8.00;3.07;;;19.80;99.90;;;;;;4954255;28;20297;-74
2022/10/02 03:50:45;;;;;;;5.50;3.10;;;19.80;99.90;;;;;;4951827;28;20314;-75
2022/10/02 03:53:15;;;;;;;5.03;3.00;;;19.70;99.90;;;;;;4944573;28;20207;-75
2022/10/02 03:55:48;;;;;;;6.77;3.47;;;19.70;99.90;;;;;;4952619;28;20222;-76
2022/10/02 03:58:18;;;;;;;4.77;3.07;;;19.70;99.90;;;;;;4951194;28;20202;-76
2022/10/02 04:00:54;;;;;;;4.90;3.23;;;19.60;99.90;;;;;;4951211;28;20241;-74
2022/10/02 04:03:27;;;;;;;7.97;4.23;;;19.60;99.90;;;;;;4950822;28;20292;-75
2022/10/02 04:06:03;;;;;;;5.63;3.17;;;19.60;99.90;;;;;;4947435;28;20698;-75
2022/10/02 04:08:36;;;;;;;5.07;3.30;;;19.60;99.90;;;;;;4951479;28;20678;-75
2022/10/02 04:11:10;;;;;;;6.40;3.20;;;19.50;99.90;;;;;;4945899;28;20241;-74
2022/10/02 04:13:41;;;;;;;5.23;3.63;;;19.50;99.90;;;;;;4956742;28;20186;-75
2022/10/02 04:16:16;;;;;;;7.00;3.40;;;19.50;99.90;;;;;;4960252;28;20347;-74
2022/10/02 04:18:52;;;;;;;7.60;3.77;;;19.40;99.90;;;;;;4950003;28;20194;-76
2022/10/02 04:21:33;;;;;;;5.87;3.33;;;19.40;99.90;;;;;;4952161;28;20218;-75
2022/10/02 04:24:10;;;;;;;5.03;3.23;;;19.40;99.90;;;;;;4959541;28;20189;-75
2022/10/02 04:26:47;;;;;;;5.47;3.27;;;19.30;99.90;;;;;;4951600;28;20209;-74
2022/10/02 04:29:20;;;;;;;8.33;3.50;;;19.30;99.90;;;;;;4943084;28;20197;-75
2022/10/02 04:31:54;;;;;;;6.93;3.30;;;19.30;99.90;;;;;;4956247;28;20567;-75
2022/10/02 04:34:22;;;;;;;7.83;3.73;;;19.20;99.90;;;;;;4951913;28;20280;-75
2022/10/02 04:37:11;;;;;;;6.60;3.50;;;19.20;99.90;;;;;;4952526;28;20235;-76
2022/10/02 04:39:58;;;;;;;6.40;3.70;;;19.10;99.90;;;;;;4955974;28;20225;-75
2022/10/02 04:42:46;;;;;;;6.43;3.93;;;19.10;99.90;;;;;;4950196;28;20230;-75
2022/10/02 04:45:33;;;;;;;5.93;3.77;;;19.00;99.90;;;;;;4956473;28;20242;-75
2022/10/02 04:48:37;;;;;;;6.40;3.60;;;19.10;99.90;;;;;;4949049;28;20197;-75
2022/10/02 04:51:17;;;;;;;5.30;3.47;;;19.10;99.90;;;;;;4958673;28;20273;-75
2022/10/02 04:53:58;;;;;;;6.90;3.77;;;19.10;99.90;;;;;;4957480;28;20281;-75
2022/10/02 04:56:52;;;;;;;8.97;3.07;;;19.10;99.90;;;;;;4957124;28;20197;-76
2022/10/02 04:59:34;;;;;;;10.10;3.17;;;19.00;99.90;;;;;;4960441;28;20229;-75
2022/10/02 05:02:20;;;;;;;6.93;2.80;;;19.00;99.90;;;;;;4962474;28;20189;-76
2022/10/02 05:05:04;;;;;;;7.47;3.20;;;19.00;99.80;;;;;;4960489;28;20201;-77
2022/10/02 05:07:47;;;;;;;6.63;3.07;;;19.10;99.90;;;;;;4957081;28;20201;-76
2022/10/02 05:10:39;;;;;;;5.57;2.97;;;19.00;99.80;;;;;;4962946;28;20233;-75
2022/10/02 05:13:27;;;;;;;7.80;2.67;;;19.00;99.80;;;;;;4954546;28;20864;-76
2022/10/02 05:16:21;;;;;;;4.67;2.77;;;19.00;99.80;;;;;;4959924;28;20579;-76
2022/10/02 05:19:14;;;;;;;5.67;2.93;;;19.00;99.80;;;;;;4951770;28;20281;-76
2022/10/02 05:22:06;;;;;;;6.40;2.90;;;19.00;99.70;;;;;;5241404;23;20779;-79
2022/10/02 05:24:46;;;;;;;6.17;2.80;;;19.10;99.70;;;;;;4970264;28;20198;-76
2022/10/02 05:27:51;;;;;;;4.23;2.67;;;19.10;99.70;;;;;;4974707;28;20213;-79
2022/10/02 05:30:20;;;;;;;4.90;2.90;;;19.10;99.70;;;;;;4963563;28;20559;-79
2022/10/02 05:33:09;;;;;;;4.97;2.53;;;19.10;99.60;;;;;;4972120;28;20764;-79
2022/10/02 05:35:56;;;;;;;6.50;2.80;;;19.10;99.40;;;;;;4970297;28;20258;-79
2022/10/02 05:39:00;;;;;;;9.57;3.00;;;19.10;99.30;;;;;;4971685;28;20195;-78
2022/10/02 05:41:39;;;;;;;6.47;3.00;;;19.10;99.30;;;;;;4969659;28;20201;-80
2022/10/02 05:44:14;;;;;;;7.53;3.03;;;19.20;99.20;;;;;;4971982;28;20603;-79
2022/10/02 05:46:46;;;;;;;5.33;3.13;;;19.20;99.10;;;;;;4968052;28;20209;-79
2022/10/02 05:49:18;;;;;;;4.50;2.20;;;19.30;99.10;;;;;;4970608;28;20204;-78
2022/10/02 05:51:54;;;;;;;5.10;2.90;;;19.30;99.00;;;;;;4971657;28;20238;-77
2022/10/02 05:54:41;;;;;;;6.43;2.67;;;19.30;98.90;;;;;;4966490;28;20194;-80
2022/10/02 05:57:16;;;;;;;5.17;2.57;;;19.30;98.80;;;;;;4969872;28;20236;-80
2022/10/02 05:59:56;;;;;;;6.20;2.90;;;19.40;98.80;;;;;;4967116;28;20273;-79
2022/10/02 06:02:28;;;;;;;5.73;2.53;;;19.50;98.70;;;;;;4970858;28;20198;-77
2022/10/02 06:05:03;;;;;;;5.60;2.70;;;19.50;98.50;;;;;;4971284;28;20216;-80
2022/10/02 06:07:32;;;;;;;2.63;1.83;;;19.60;98.40;;;;;;4966226;28;20280;-77
2022/10/02 06:10:09;;;;;;;7.17;3.07;;;19.60;98.30;;;;;;4967732;28;20281;-80
2022/10/02 06:12:45;;;;;;;5.03;2.43;;;19.60;98.20;;;;;;4972154;28;20244;-81
2022/10/02 06:15:22;;;;;;;5.93;2.80;;;19.70;98.00;;;;;;4967626;28;20855;-78
2022/10/02 06:17:55;;;;;;;3.23;2.07;;;19.80;97.90;;;;;;4971571;28;20240;-78
2022/10/02 06:20:28;;;;;;;3.53;2.30;;;19.90;97.80;;;;;;4969903;28;20230;-77
2022/10/02 06:23:01;;;;;;;2.73;2.10;;;19.90;97.60;;;;;;4964965;28;20253;-79
2022/10/02 06:25:35;;;;;;;3.13;1.98;;;20.00;97.50;;;;;;4970206;28;20424;-79
2022/10/02 06:28:14;;;;;;;4.23;1.90;;;20.00;96.90;;;;;;4962951;28;20272;-78
2022/10/02 06:30:47;;;;;;;2.60;1.40;;;20.00;96.30;;;;;;4969808;28;20231;-80
2022/10/02 06:33:21;;;;;;;3.20;1.70;;;20.00;95.80;;;;;;4965633;28;20221;-80
2022/10/02 06:36:20;;;;;;;7.83;2.00;;;20.10;95.90;;;;;;4970333;28;20190;-79
2022/10/02 06:39:07;;;;;;;4.97;1.60;;;20.10;94.90;;;;;;4971141;28;20253;-79
2022/10/02 06:41:46;;;;;;;2.70;1.65;;;20.10;94.90;;;;;;4966768;28;20226;-79
2022/10/02 06:44:23;;;;;;;4.07;1.80;;;20.20;95.00;;;;;;4961422;28;20251;-79
2022/10/02 06:47:10;;;;;;;2.92;1.33;;;20.30;94.90;;;;;;4965479;28;20214;-79
2022/10/02 06:49:55;;;;;;;2.25;1.40;;;20.30;94.70;;;;;;4963931;28;20719;-80
2022/10/02 06:52:35;;;;;;;4.85;1.52;;;20.40;94.30;;;;;;4963454;28;20190;-79
2022/10/02 06:55:25;;;;;;;3.28;1.63;;;20.40;93.80;;;;;;4963087;28;20197;-76
2022/10/02 06:58:10;;;;;;;5.57;1.65;;;20.50;93.50;;;;;;4968082;28;20600;-80
2022/10/02 07:00:48;;;;;;;4.80;1.88;;;20.60;93.50;;;;;;4970159;28;20205;-77
2022/10/02 07:03:48;;;;;;;3.17;1.38;;;20.70;93.60;;;;;;4969396;28;20220;-79
2022/10/02 07:06:24;;;;;;;2.33;1.25;;;20.80;92.90;;;;;;4965776;28;20639;-80
2022/10/02 07:09:14;;;;;;;2.47;1.27;;;20.90;92.80;;;;;;4963532;28;20280;-82
2022/10/02 07:11:52;;;;;;;4.60;1.30;;;21.00;91.70;;;;;;4960751;28;20684;-80
2022/10/02 07:14:45;;;;;;;3.40;1.48;;;21.10;90.80;;;;;;4968769;28;20197;-82
2022/10/02 07:17:29;;;;;;;2.80;1.10;;;21.10;90.40;;;;;;4961945;28;20210;-80
2022/10/02 07:20:16;;;;;;;4.13;1.10;;;21.20;90.30;;;;;;4966507;28;20228;-77
2022/10/02 07:22:59;;;;;;;6.35;1.10;;;21.30;89.70;;;;;;4966041;28;20234;-84
2022/10/02 07:25:42;;;;;;;2.13;0.90;;;21.30;88.90;;;;;;4962659;28;20550;-82
2022/10/02 07:28:17;;;;;;;1.63;0.90;;;21.30;89.30;;;;;;4961408;28;20215;-79
2022/10/02 07:31:03;;;;;;;4.40;1.40;;;21.30;87.90;;;;;;4970958;28;20221;-78
2022/10/02 07:33:47;;;;;;;3.58;1.25;;;21.40;87.50;;;;;;4962616;28;20198;-78
2022/10/02 07:36:23;;;;;;;6.45;1.05;;;21.40;86.70;;;;;;4966087;28;20194;-80
2022/10/02 07:39:02;;;;;;;1.25;0.90;;;21.50;87.80;;;;;;4960404;28;20688;-87
2022/10/02 07:41:55;;;;;;;2.88;1.10;;;21.50;87.90;;;;;;4971446;28;20832;-78
2022/10/02 07:44:40;;;;;;;1.55;0.90;;;21.50;86.00;;;;;;4947574;28;20234;-81
2022/10/02 07:47:24;;;;;;;5.82;1.63;;;21.60;84.00;;;;;;4966190;28;20207;-82
2022/10/02 07:49:59;;;;;;;1.33;0.70;;;21.50;83.50;;;;;;4967282;28;20222;-81
2022/10/02 07:52:38;;;;;;;1.73;0.85;;;21.60;83.00;;;;;;4969399;28;20185;-81
2022/10/02 07:55:17;;;;;;;2.63;1.08;;;21.60;81.90;;;;;;4960650;28;20198;-78
2022/10/02 07:57:54;;;;;;;3.17;0.90;;;21.60;81.90;;;;;;4962775;28;20205;-79
2022/10/02 08:00:25;;;;;;;3.55;0.95;;;21.70;81.40;;;;;;4967442;28;20209;-82
2022/10/02 08:02:59;;;;;;;1.77;1.00;;;21.80;81.10;;;;;;4959395;28;20233;-81
2022/10/02 08:05:36;;;;;;;1.45;0.70;;;21.80;78.90;;;;;;4963042;28;20204;-84
2022/10/02 08:08:11;;;;;;;1.60;0.80;;;21.90;79.60;;;;;;4961848;28;20218;-85
2022/10/02 08:10:43;;;;;;;5.30;0.90;;;22.00;78.10;;;;;;4959829;28;20205;-84
2022/10/02 08:13:19;;;;;;;4.10;1.30;;;22.10;77.20;;;;;;4968135;28;20244;-86
2022/10/02 08:15:53;;;;;;;2.88;1.23;;;22.20;77.80;;;;;;4966336;28;20189;-78
2022/10/02 08:18:30;;;;;;;1.40;0.77;;;22.20;75.60;;;;;;4959984;28;20249;-83
2022/10/02 08:21:05;;;;;;;2.08;0.80;;;22.40;77.00;;;;;;4961760;28;20299;-80
2022/10/02 08:23:39;;;;;;;4.22;1.10;;;22.40;73.20;;;;;;4964135;28;20204;-80
2022/10/02 08:26:16;;;;;;;7.25;0.68;;;22.50;71.40;;;;;;4967557;28;20268;-80
2022/10/02 08:28:51;;;;;;;1.25;0.73;;;22.50;68.60;;;;;;4963400;28;20677;-86
2022/10/02 08:31:19;;;;;;;1.00;0.57;;;22.60;65.70;;;;;;4965547;28;20189;-84
2022/10/02 08:33:50;;;;;;;0.73;0.38;;;22.70;64.20;;;;;;4967771;28;20205;-80
2022/10/02 08:36:34;;;;;;;0.82;0.40;;;22.70;60.60;;;;;;4964406;28;20621;-80
2022/10/02 08:39:15;;;;;;;7.88;0.50;;;22.80;57.40;;;;;;4963368;28;20194;-86
2022/10/02 08:42:08;;;;;;;0.55;0.30;;;22.90;58.80;;;;;;4967191;28;20722;-82
2022/10/02 08:45:02;;;;;;;1.77;0.30;;;22.90;57.20;;;;;;4966116;28;20726;-77
2022/10/02 08:48:11;;;;;;;0.63;0.30;;;22.90;57.10;;;;;;4961667;28;20291;-81
2022/10/02 08:51:17;;;;;;;3.95;0.40;;;23.00;57.40;;;;;;4958403;28;20190;-81
2022/10/02 08:54:31;;;;;;;0.47;0.30;;;23.10;57.10;;;;;;4969854;28;20197;-82
2022/10/02 08:57:17;;;;;;;2.20;0.40;;;23.20;57.00;;;;;;4963812;28;20730;-83
2022/10/02 09:00:08;;;;;;;2.88;0.50;;;23.20;57.20;;;;;;4964132;28;20256;-83
2022/10/02 09:03:10;;;;;;;0.93;0.40;;;23.20;57.30;;;;;;4960541;28;20650;-80
2022/10/02 09:06:13;;;;;;;4.32;0.38;;;23.30;56.10;;;;;;4965602;28;20657;-83
2022/10/02 09:09:12;;;;;;;1.30;0.40;;;23.30;56.40;;;;;;4971773;28;20228;-81
2022/10/02 09:11:59;;;;;;;4.07;0.40;;;23.40;56.80;;;;;;4966111;28;20603;-81
2022/10/02 09:14:47;;;;;;;0.70;0.40;;;23.50;56.40;;;;;;4964253;28;20248;-82
2022/10/02 09:17:42;;;;;;;2.28;0.32;;;23.50;56.00;;;;;;4964027;28;20202;-79
2022/10/02 09:20:50;;;;;;;1.23;0.50;;;23.50;55.50;;;;;;4965565;28;20305;-80
2022/10/02 09:24:10;;;;;;;2.50;0.45;;;23.50;54.40;;;;;;4971096;28;20186;-79
2022/10/02 09:27:23;;;;;;;0.70;0.55;;;23.60;55.40;;;;;;4972848;28;20318;-83
2022/10/02 09:30:21;;;;;;;4.38;0.60;;;23.60;55.30;;;;;;4943989;29;20269;-79
2022/10/02 09:33:31;;;;;;;0.40;0.40;;;23.70;54.00;;;;;;4943132;29;20218;-80
2022/10/02 09:36:34;;;;;;;1.48;0.60;;;23.70;53.20;;;;;;4966720;28;20300;-80
2022/10/02 09:39:40;;;;;;;2.38;0.80;;;23.70;53.30;;;;;;4965733;28;20299;-80
2022/10/02 09:42:29;;;;;;;0.63;0.32;;;23.80;52.10;;;;;;4976103;28;20233;-85
2022/10/02 09:45:31;;;;;;;2.63;0.70;;;23.80;51.30;;;;;;4963571;28;20206;-77
2022/10/02 09:48:33;;;;;;;1.70;0.90;;;23.90;51.80;;;;;;4966221;28;20682;-80
2022/10/02 09:51:42;;;;;;;0.60;0.40;;;23.90;48.70;;;;;;4962121;28;20603;-80
2022/10/02 09:54:41;;;;;;;2.60;0.70;;;24.00;50.10;;;;;;4977126;28;20196;-81
2022/10/02 09:57:55;;;;;;;2.88;2.47;;;24.00;50.80;;;;;;4969306;28;20186;-80
2022/10/02 10:00:38;;;;;;;7.57;1.25;;;24.00;50.90;;;;;;4948325;28;20236;-80
2022/10/02 10:03:47;;;;;;;5.30;0.80;;;24.10;51.10;;;;;;4972903;28;20186;-80
2022/10/02 10:06:42;;;;;;;16.45;3.13;;;24.10;50.40;;;;;;4969723;28;20198;-84
2022/10/02 10:09:46;;;;;;;1.17;0.80;;;24.10;50.70;;;;;;4966994;28;20776;-78
2022/10/02 10:12:48;;;;;;;17.45;11.20;;;24.20;49.90;;;;;;4971589;28;20247;-79
2022/10/02 10:15:46;;;;;;;12.45;2.97;;;24.20;50.00;;;;;;4956589;28;20194;-79
2022/10/02 10:18:46;;;;;;;1.67;0.80;;;24.20;48.50;;;;;;4962285;28;20194;-82
2022/10/02 10:21:48;;;;;;;1.95;0.73;;;24.20;49.60;;;;;;4966586;28;20292;-82
2022/10/02 10:25:10;;;;;;;3.05;0.70;;;24.30;48.90;;;;;;4960868;28;20209;-82
2022/10/02 10:28:06;;;;;;;2.13;0.50;;;24.20;49.30;;;;;;4962402;28;20260;-85
2022/10/02 10:31:08;;;;;;;1.45;0.50;;;24.30;50.40;;;;;;4956859;28;20202;-82
2022/10/02 10:34:09;;;;;;;0.98;0.52;;;24.30;48.90;;;;;;4963482;28;20229;-85
2022/10/02 10:40:15;;;;;;;1.13;0.70;;;24.30;48.20;;;;;;4967856;28;20198;-79
2022/10/02 10:43:09;;;;;;;2.15;0.70;;;24.30;48.60;;;;;;4966276;28;20197;-82
2022/10/02 10:45:55;;;;;;;1.40;0.50;;;24.30;49.20;;;;;;4937738;28;20498;-80
2022/10/02 10:48:34;;;;;;;1.42;0.30;;;24.40;49.70;;;;;;4968363;28;20237;-80
2022/10/02 10:51:30;;;;;;;0.82;0.52;;;24.40;49.10;;;;;;4970086;28;20197;-82
2022/10/02 10:54:30;;;;;;;2.17;0.70;;;24.50;49.30;;;;;;4970232;28;20190;-78
2022/10/02 10:57:05;;;;;;;2.92;0.30;;;24.50;49.00;;;;;;4965765;28;20195;-77
2022/10/02 11:00:01;;;;;;;1.58;0.55;;;24.50;48.60;;;;;;4962604;28;20674;-79
2022/10/02 11:03:07;;;;;;;1.27;0.50;;;24.50;48.50;;;;;;4966760;28;20195;-79
2022/10/02 11:06:25;;;;;;;1.98;0.50;;;24.60;48.90;;;;;;4961943;28;20924;-80
2022/10/02 11:09:26;;;;;;;2.10;0.40;;;24.70;47.80;;;;;;4928129;29;20252;-82
2022/10/02 11:12:27;;;;;;;1.02;0.50;;;24.60;47.40;;;;;;4960071;28;20283;-84
2022/10/02 11:15:23;;;;;;;1.52;0.45;;;24.60;48.10;;;;;;4965531;28;20194;-78
2022/10/02 11:18:09;;;;;;;1.20;0.40;;;24.70;48.50;;;;;;4964833;28;20872;-81
2022/10/02 11:21:03;;;;;;;0.70;0.50;;;24.70;47.60;;;;;;4962604;28;20246;-80
2022/10/02 11:24:06;;;;;;;2.45;0.60;;;24.70;46.90;;;;;;4966457;28;20202;-85
2022/10/02 11:27:13;;;;;;;1.20;0.55;;;24.70;46.80;;;;;;4967918;28;20674;-78
2022/10/02 11:30:15;;;;;;;7.03;0.50;;;24.70;46.80;;;;;;4965709;28;20650;-85
2022/10/02 11:33:18;;;;;;;0.28;0.28;;;24.80;47.30;;;;;;4965855;28;20198;-82
2022/10/02 11:36:15;;;;;;;0.43;0.38;;;24.90;47.30;;;;;;4961903;28;20193;-81
2022/10/02 11:39:37;;;;;;;0.73;0.40;;;24.90;47.60;;;;;;4958546;28;20198;-79
2022/10/02 11:42:37;;;;;;;0.55;0.40;;;25.00;47.60;;;;;;4898214;29;20259;-80
2022/10/02 11:45:42;;;;;;;1.00;0.60;;;25.00;45.90;;;;;;4900738;29;20234;-79
2022/10/02 11:48:52;;;;;;;4.38;0.50;;;25.00;45.60;;;;;;4968940;28;20285;-83
2022/10/02 11:51:45;;;;;;;0.90;0.60;;;25.00;47.10;;;;;;4959917;28;20193;-78
2022/10/02 11:54:37;;;;;;;0.90;0.47;;;25.10;47.10;;;;;;4966017;28;20198;-81
2022/10/02 11:57:24;;;;;;;0.95;0.60;;;25.10;46.00;;;;;;4969616;28;20217;-78
2022/10/02 12:00:11;;;;;;;0.50;0.50;;;25.10;45.70;;;;;;4964450;28;20302;-80
2022/10/02 12:02:49;;;;;;;1.10;0.52;;;25.10;45.70;;;;;;4961457;28;20210;-84
2022/10/02 12:05:34;;;;;;;2.60;0.65;;;25.00;45.20;;;;;;4964870;28;20677;-85
2022/10/02 12:08:16;;;;;;;2.78;0.50;;;25.00;44.20;;;;;;4965829;28;20651;-84
2022/10/02 12:10:54;;;;;;;1.48;0.52;;;25.00;44.60;;;;;;4965934;28;20260;-82
2022/10/02 12:13:48;;;;;;;0.93;0.50;;;25.00;44.40;;;;;;4968020;28;20236;-77
2022/10/02 12:16:26;;;;;;;1.00;0.45;;;25.00;44.50;;;;;;4968170;28;20217;-80
2022/10/02 12:19:10;;;;;;;1.52;0.50;;;25.10;45.10;;;;;;4965450;28;20198;-82
2022/10/02 12:27:49;;;;;;;0.70;0.50;;;25.10;43.70;;;;;;4974225;28;20236;-86
2022/10/02 12:30:22;;;;;;;0.50;0.40;;;25.20;43.90;;;;;;4970489;28;20241;-81
2022/10/02 12:33:00;;;;;;;1.65;0.45;;;25.10;43.70;;;;;;4968897;28;20198;-82
2022/10/02 12:35:49;;;;;;;1.65;0.50;;;25.10;43.00;;;;;;4961239;28;20202;-78
2022/10/02 12:38:34;;;;;;;0.90;0.55;;;25.10;42.10;;;;;;4963001;28;20402;-82
2022/10/02 12:41:12;;;;;;;0.98;0.40;;;25.00;42.20;;;;;;4968129;28;20195;-77
2022/10/02 12:44:06;;;;;;;0.73;0.55;;;25.10;42.00;;;;;;4969521;28;20437;-82
2022/10/02 12:46:59;;;;;;;4.35;0.50;;;25.10;42.90;;;;;;4974832;28;20193;-85
2022/10/02 12:49:38;;;;;;;3.72;0.70;;;25.10;43.30;;;;;;4965902;28;20340;-80
2022/10/02 12:52:42;;;;;;;1.13;0.60;;;25.20;43.40;;;;;;4967451;28;20190;-82
2022/10/02 12:55:55;;;;;;;0.88;0.45;;;25.20;43.40;;;;;;4962415;28;20205;-82
2022/10/02 12:58:32;;;;;;;4.13;1.05;;;25.20;43.70;;;;;;4969097;28;20225;-77
2022/10/02 13:01:35;;;;;;;4.75;0.80;;;25.30;44.50;;;;;;4967727;28;20197;-78
2022/10/02 13:04:44;;;;;;;2.30;0.70;;;25.30;44.40;;;;;;4966008;28;20233;-82
2022/10/02 13:07:45;;;;;;;0.98;0.60;;;25.40;44.40;;;;;;4964192;28;20619;-79
2022/10/02 13:10:19;;;;;;;2.75;0.43;;;25.40;44.50;;;;;;4967154;28;20218;-83
2022/10/02 13:13:01;;;;;;;2.55;0.50;;;25.50;44.30;;;;;;4965599;28;20194;-85
2022/10/02 13:15:39;;;;;;;1.30;0.47;;;25.60;44.70;;;;;;4969151;28;20208;-79
2022/10/02 13:18:29;;;;;;;0.70;0.52;;;26.00;45.20;;;;;;4968614;28;20225;-79
2022/10/02 13:21:10;;;;;;;1.40;0.70;;;26.40;44.10;;;;;;4967107;28;20194;-84
2022/10/02 13:23:47;;;;;;;0.47;0.40;;;26.60;43.70;;;;;;4972883;28;20201;-81
2022/10/02 13:26:23;;;;;;;4.60;1.13;;;26.60;43.30;;;;;;4973192;28;20201;-81
2022/10/02 13:29:29;;;;;;;3.15;1.60;;;26.60;43.20;;;;;;4965832;28;20194;-75
2022/10/02 13:32:14;;;;;;;1.88;1.15;;;26.50;42.70;;;;;;4962364;28;20252;-83
2022/10/02 13:35:03;;;;;;;0.52;0.30;;;26.50;42.70;;;;;;4966600;28;20630;-76
2022/10/02 13:38:18;;;;;;;1.88;0.60;;;26.50;41.50;;;;;;4972458;28;20205;-82
2022/10/02 13:41:12;;;;;;;0.50;0.50;;;26.40;41.70;;;;;;4947101;28;20197;-80
2022/10/02 13:43:57;;;;;;;0.50;0.40;;;26.20;41.90;;;;;;4961220;28;20571;-84
2022/10/02 13:46:53;;;;;;;0.30;0.30;;;26.20;42.40;;;;;;4971839;28;20248;-76
2022/10/02 13:49:32;;;;;;;0.65;0.40;;;26.20;41.50;;;;;;4964814;28;20611;-84
2022/10/02 13:52:13;;;;;;;0.57;0.30;;;26.40;41.20;;;;;;4968029;28;20228;-85
2022/10/02 13:55:14;;;;;;;0.30;0.30;;;26.20;40.30;;;;;;4968589;28;20208;-81
2022/10/02 13:58:35;;;;;;;0.43;0.30;;;26.20;40.10;;;;;;4971085;28;20221;-81
2022/10/02 14:01:17;;;;;;;1.23;0.40;;;25.90;39.90;;;;;;4886441;29;20615;-76
2022/10/02 14:04:14;;;;;;;1.20;0.30;;;25.80;40.60;;;;;;4961812;28;20273;-81
2022/10/02 14:06:48;;;;;;;0.88;0.40;;;25.60;40.20;;;;;;4963518;28;20194;-82
2022/10/02 14:09:36;;;;;;;1.13;0.40;;;25.50;39.90;;;;;;4974197;28;20217;-81
2022/10/02 14:12:26;;;;;;;0.75;0.40;;;25.40;40.70;;;;;;4966365;28;20294;-79
2022/10/02 14:15:19;;;;;;;1.15;0.57;;;25.30;40.70;;;;;;4970118;28;20201;-82
2022/10/02 14:18:18;;;;;;;1.13;0.40;;;25.20;40.60;;;;;;4964171;28;20611;-81
2022/10/02 14:20:54;;;;;;;0.65;0.30;;;25.10;40.70;;;;;;4968701;28;20194;-81
2022/10/02 14:23:45;;;;;;;0.30;0.30;;;25.10;41.00;;;;;;4969272;28;20197;-81